sensor_id;sensor_type;location;lat;lon;timestamp;P1;durP1;ratioP1;P2;durP2;ratioP2
3959;SDS011;1994;48.640;8.894;2023-05-10T00:00:07;1.30;;;1.00;;
3959;SDS011;1994;48.640;8.894;2023-05-10T00:02:34;1.40;;;1.00;;
3959;SDS011;1994;48.640;8.894;2023-05-10T00:05:01;4.47;;;1.00;;
3959;SDS011;1994;48.640;8.894;2023-05-10T00:07:27;1.00;;;0.70;;
3959;SDS011;1994;48.640;8.894;2023-05-10T00:09:53;0.93;;;0.70;;
3959;SDS011;1994;48.640;8.894;2023-05-10T00:12:18;1.00;;;0.80;;
3959;SDS011;1994;48.640;8.894;2023-05-10T00:14:44;0.97;;;0.77;;
3959;SDS011;1994;48.640;8.894;2023-05-10T00:17:10;1.43;;;0.70;;
3959;SDS011;1994;48.640;8.894;2023-05-10T00:19:36;1.07;;;0.70;;
3959;SDS011;1994;48.640;8.894;2023-05-10T00:22:01;1.90;;;0.70;;
3959;SDS011;1994;48.640;8.894;2023-05-10T00:24:28;1.67;;;0.73;;
3959;SDS011;1994;48.640;8.894;2023-05-10T00:26:53;0.60;;;0.60;;
3959;SDS011;1994;48.640;8.894;2023-05-10T00:29:19;0.60;;;0.60;;
3959;SDS011;1994;48.640;8.894;2023-05-10T00:31:45;0.60;;;0.60;;
3959;SDS011;1994;48.640;8.894;2023-05-10T00:34:11;0.60;;;0.60;;
3959;SDS011;1994;48.640;8.894;2023-05-10T00:36:36;3.47;;;0.70;;
3959;SDS011;1994;48.640;8.894;2023-05-10T00:39:02;3.40;;;0.60;;
3959;SDS011;1994;48.640;8.894;2023-05-10T00:41:28;0.60;;;0.60;;
3959;SDS011;1994;48.640;8.894;2023-05-10T00:43:57;4.83;;;0.63;;
3959;SDS011;1994;48.640;8.894;2023-05-10T00:46:23;0.60;;;0.60;;
3959;SDS011;1994;48.640;8.894;2023-05-10T00:48:50;1.77;;;0.60;;
3959;SDS011;1994;48.640;8.894;2023-05-10T00:51:17;0.60;;;0.60;;
3959;SDS011;1994;48.640;8.894;2023-05-10T00:53:44;0.50;;;0.50;;
3959;SDS011;1994;48.640;8.894;2023-05-10T00:56:10;0.70;;;0.70;;
3959;SDS011;1994;48.640;8.894;2023-05-10T00:58:37;0.60;;;0.60;;
3959;SDS011;1994;48.640;8.894;2023-05-10T01:01:04;0.60;;;0.60;;
3959;SDS011;1994;48.640;8.894;2023-05-10T01:03:31;0.70;;;0.70;;
3959;SDS011;1994;48.640;8.894;2023-05-10T01:05:57;1.20;;;0.70;;
3959;SDS011;1994;48.640;8.894;2023-05-10T01:08:23;1.23;;;0.60;;
3959;SDS011;1994;48.640;8.894;2023-05-10T01:10:50;0.60;;;0.60;;
3959;SDS011;1994;48.640;8.894;2023-05-10T01:13:18;0.70;;;0.70;;
3959;SDS011;1994;48.640;8.894;2023-05-10T01:16:00;0.60;;;0.60;;
3959;SDS011;1994;48.640;8.894;2023-05-10T01:18:28;0.60;;;0.60;;
3959;SDS011;1994;48.640;8.894;2023-05-10T01:21:07;0.70;;;0.70;;
3959;SDS011;1994;48.640;8.894;2023-05-10T01:26:58;4.33;;;0.77;;
3959;SDS011;1994;48.640;8.894;2023-05-10T01:38:40;0.60;;;0.60;;
3959;SDS011;1994;48.640;8.894;2023-05-10T01:41:27;0.63;;;0.63;;
3959;SDS011;1994;48.640;8.894;2023-05-10T01:44:52;0.60;;;0.60;;
3959;SDS011;1994;48.640;8.894;2023-05-10T01:47:12;0.60;;;0.60;;
3959;SDS011;1994;48.640;8.894;2023-05-10T01:49:45;0.70;;;0.70;;
3959;SDS011;1994;48.640;8.894;2023-05-10T01:52:16;0.70;;;0.70;;
3959;SDS011;1994;48.640;8.894;2023-05-10T01:54:48;0.60;;;0.60;;
3959;SDS011;1994;48.640;8.894;2023-05-10T01:57:20;0.73;;;0.73;;
3959;SDS011;1994;48.640;8.894;2023-05-10T01:59:50;0.70;;;0.70;;
3959;SDS011;1994;48.640;8.894;2023-05-10T02:02:18;0.80;;;0.80;;
3959;SDS011;1994;48.640;8.894;2023-05-10T02:04:47;0.60;;;0.60;;
3959;SDS011;1994;48.640;8.894;2023-05-10T02:07:16;0.70;;;0.70;;
3959;SDS011;1994;48.640;8.894;2023-05-10T02:09:44;0.60;;;0.60;;
3959;SDS011;1994;48.640;8.894;2023-05-10T02:12:14;0.77;;;0.70;;
3959;SDS011;1994;48.640;8.894;2023-05-10T02:14:41;0.70;;;0.70;;
3959;SDS011;1994;48.640;8.894;2023-05-10T02:17:08;1.00;;;1.00;;
3959;SDS011;1994;48.640;8.894;2023-05-10T02:19:36;2.20;;;0.90;;
3959;SDS011;1994;48.640;8.894;2023-05-10T02:22:05;0.70;;;0.70;;
3959;SDS011;1994;48.640;8.894;2023-05-10T02:24:33;0.70;;;0.70;;
3959;SDS011;1994;48.640;8.894;2023-05-10T02:27:02;0.70;;;0.70;;
3959;SDS011;1994;48.640;8.894;2023-05-10T02:29:29;0.60;;;0.60;;
3959;SDS011;1994;48.640;8.894;2023-05-10T02:31:57;0.70;;;0.70;;
3959;SDS011;1994;48.640;8.894;2023-05-10T02:34:27;2.20;;;0.90;;
3959;SDS011;1994;48.640;8.894;2023-05-10T02:36:55;0.77;;;0.77;;
3959;SDS011;1994;48.640;8.894;2023-05-10T02:39:21;0.90;;;0.90;;
3959;SDS011;1994;48.640;8.894;2023-05-10T02:41:49;0.70;;;0.70;;
3959;SDS011;1994;48.640;8.894;2023-05-10T02:44:20;0.80;;;0.80;;
3959;SDS011;1994;48.640;8.894;2023-05-10T02:46:48;0.90;;;0.90;;
3959;SDS011;1994;48.640;8.894;2023-05-10T02:49:15;1.53;;;1.20;;
3959;SDS011;1994;48.640;8.894;2023-05-10T02:51:42;1.00;;;1.00;;
3959;SDS011;1994;48.640;8.894;2023-05-10T02:54:15;0.90;;;0.90;;
3959;SDS011;1994;48.640;8.894;2023-05-10T02:56:53;4.27;;;1.70;;
3959;SDS011;1994;48.640;8.894;2023-05-10T02:59:25;0.90;;;0.90;;
3959;SDS011;1994;48.640;8.894;2023-05-10T03:01:52;1.10;;;1.00;;
3959;SDS011;1994;48.640;8.894;2023-05-10T03:04:18;0.90;;;0.90;;
3959;SDS011;1994;48.640;8.894;2023-05-10T03:06:44;0.87;;;0.87;;
3959;SDS011;1994;48.640;8.894;2023-05-10T03:09:10;2.30;;;0.80;;
3959;SDS011;1994;48.640;8.894;2023-05-10T03:11:47;0.73;;;0.73;;
3959;SDS011;1994;48.640;8.894;2023-05-10T03:20:06;1.60;;;1.50;;
3959;SDS011;1994;48.640;8.894;2023-05-10T03:22:47;0.90;;;0.80;;
3959;SDS011;1994;48.640;8.894;2023-05-10T03:25:18;1.20;;;1.10;;
3959;SDS011;1994;48.640;8.894;2023-05-10T03:27:47;0.97;;;0.97;;
3959;SDS011;1994;48.640;8.894;2023-05-10T03:30:13;5.10;;;1.33;;
3959;SDS011;1994;48.640;8.894;2023-05-10T03:32:40;1.10;;;1.00;;
3959;SDS011;1994;48.640;8.894;2023-05-10T03:35:09;1.60;;;1.00;;
3959;SDS011;1994;48.640;8.894;2023-05-10T03:37:38;1.60;;;1.20;;
3959;SDS011;1994;48.640;8.894;2023-05-10T03:40:04;1.17;;;0.90;;
3959;SDS011;1994;48.640;8.894;2023-05-10T03:42:31;1.37;;;1.10;;
3959;SDS011;1994;48.640;8.894;2023-05-10T03:44:57;3.00;;;1.30;;
3959;SDS011;1994;48.640;8.894;2023-05-10T03:47:22;1.60;;;1.30;;
3959;SDS011;1994;48.640;8.894;2023-05-10T03:49:48;1.20;;;1.10;;
3959;SDS011;1994;48.640;8.894;2023-05-10T03:52:14;1.70;;;1.37;;
3959;SDS011;1994;48.640;8.894;2023-05-10T03:54:40;1.27;;;1.00;;
3959;SDS011;1994;48.640;8.894;2023-05-10T03:57:06;1.70;;;1.40;;
3959;SDS011;1994;48.640;8.894;2023-05-10T03:59:32;1.33;;;1.17;;
3959;SDS011;1994;48.640;8.894;2023-05-10T04:01:57;1.70;;;1.37;;
3959;SDS011;1994;48.640;8.894;2023-05-10T04:04:23;1.50;;;1.10;;
3959;SDS011;1994;48.640;8.894;2023-05-10T04:06:49;2.13;;;1.83;;
3959;SDS011;1994;48.640;8.894;2023-05-10T04:09:15;1.30;;;1.00;;
3959;SDS011;1994;48.640;8.894;2023-05-10T04:11:42;1.53;;;1.13;;
3959;SDS011;1994;48.640;8.894;2023-05-10T04:14:08;2.00;;;1.40;;
3959;SDS011;1994;48.640;8.894;2023-05-10T04:16:34;2.93;;;1.53;;
3959;SDS011;1994;48.640;8.894;2023-05-10T04:19:00;1.20;;;1.00;;
3959;SDS011;1994;48.640;8.894;2023-05-10T04:21:25;1.90;;;1.50;;
3959;SDS011;1994;48.640;8.894;2023-05-10T04:23:51;2.50;;;1.73;;
3959;SDS011;1994;48.640;8.894;2023-05-10T04:26:17;2.03;;;1.50;;
3959;SDS011;1994;48.640;8.894;2023-05-10T04:28:43;1.23;;;1.13;;
3959;SDS011;1994;48.640;8.894;2023-05-10T04:31:09;3.00;;;1.43;;
3959;SDS011;1994;48.640;8.894;2023-05-10T04:33:35;2.50;;;1.83;;
3959;SDS011;1994;48.640;8.894;2023-05-10T04:36:02;1.83;;;1.27;;
3959;SDS011;1994;48.640;8.894;2023-05-10T04:38:28;1.87;;;1.30;;
3959;SDS011;1994;48.640;8.894;2023-05-10T04:40:54;2.03;;;1.50;;
3959;SDS011;1994;48.640;8.894;2023-05-10T04:43:38;1.67;;;1.33;;
3959;SDS011;1994;48.640;8.894;2023-05-10T04:46:04;1.50;;;1.10;;
3959;SDS011;1994;48.640;8.894;2023-05-10T04:48:30;2.27;;;1.23;;
3959;SDS011;1994;48.640;8.894;2023-05-10T04:50:56;1.80;;;1.50;;
3959;SDS011;1994;48.640;8.894;2023-05-10T04:53:22;1.50;;;1.10;;
3959;SDS011;1994;48.640;8.894;2023-05-10T04:55:48;1.50;;;1.40;;
3959;SDS011;1994;48.640;8.894;2023-05-10T04:58:14;1.83;;;1.30;;
3959;SDS011;1994;48.640;8.894;2023-05-10T05:00:40;3.10;;;1.37;;
3959;SDS011;1994;48.640;8.894;2023-05-10T05:03:06;1.70;;;1.40;;
3959;SDS011;1994;48.640;8.894;2023-05-10T05:05:32;1.70;;;1.33;;
3959;SDS011;1994;48.640;8.894;2023-05-10T05:07:58;1.50;;;1.30;;
3959;SDS011;1994;48.640;8.894;2023-05-10T05:10:24;1.90;;;1.40;;
3959;SDS011;1994;48.640;8.894;2023-05-10T05:12:49;1.60;;;1.20;;
3959;SDS011;1994;48.640;8.894;2023-05-10T05:15:15;2.63;;;1.83;;
3959;SDS011;1994;48.640;8.894;2023-05-10T05:17:42;4.40;;;1.40;;
3959;SDS011;1994;48.640;8.894;2023-05-10T05:20:08;2.57;;;1.20;;
3959;SDS011;1994;48.640;8.894;2023-05-10T05:22:36;2.83;;;1.40;;
3959;SDS011;1994;48.640;8.894;2023-05-10T05:25:02;1.73;;;1.40;;
3959;SDS011;1994;48.640;8.894;2023-05-10T05:27:29;2.80;;;1.33;;
3959;SDS011;1994;48.640;8.894;2023-05-10T05:29:55;2.20;;;1.33;;
3959;SDS011;1994;48.640;8.894;2023-05-10T05:32:21;1.30;;;1.20;;
3959;SDS011;1994;48.640;8.894;2023-05-10T05:34:48;1.90;;;1.20;;
3959;SDS011;1994;48.640;8.894;2023-05-10T05:37:15;1.70;;;1.23;;
3959;SDS011;1994;48.640;8.894;2023-05-10T05:39:42;1.80;;;1.37;;
3959;SDS011;1994;48.640;8.894;2023-05-10T05:42:09;1.50;;;1.40;;
3959;SDS011;1994;48.640;8.894;2023-05-10T05:44:35;3.70;;;1.27;;
3959;SDS011;1994;48.640;8.894;2023-05-10T05:47:01;2.30;;;1.60;;
3959;SDS011;1994;48.640;8.894;2023-05-10T05:49:27;1.80;;;1.40;;
3959;SDS011;1994;48.640;8.894;2023-05-10T05:51:53;2.83;;;1.80;;
3959;SDS011;1994;48.640;8.894;2023-05-10T05:54:19;3.00;;;1.67;;
3959;SDS011;1994;48.640;8.894;2023-05-10T05:56:45;1.90;;;1.40;;
3959;SDS011;1994;48.640;8.894;2023-05-10T05:59:11;2.83;;;1.70;;
3959;SDS011;1994;48.640;8.894;2023-05-10T06:01:37;3.33;;;1.60;;
3959;SDS011;1994;48.640;8.894;2023-05-10T06:04:03;2.30;;;1.70;;
3959;SDS011;1994;48.640;8.894;2023-05-10T06:06:28;1.40;;;1.30;;
3959;SDS011;1994;48.640;8.894;2023-05-10T06:08:54;1.97;;;1.40;;
3959;SDS011;1994;48.640;8.894;2023-05-10T06:11:20;1.83;;;1.43;;
3959;SDS011;1994;48.640;8.894;2023-05-10T06:13:46;1.50;;;1.40;;
3959;SDS011;1994;48.640;8.894;2023-05-10T06:16:12;1.60;;;1.47;;
3959;SDS011;1994;48.640;8.894;2023-05-10T06:18:38;2.33;;;1.60;;
3959;SDS011;1994;48.640;8.894;2023-05-10T06:21:04;1.63;;;1.20;;
3959;SDS011;1994;48.640;8.894;2023-05-10T06:23:30;1.53;;;1.10;;
3959;SDS011;1994;48.640;8.894;2023-05-10T06:25:56;1.20;;;1.10;;
3959;SDS011;1994;48.640;8.894;2023-05-10T06:28:22;1.60;;;1.30;;
3959;SDS011;1994;48.640;8.894;2023-05-10T06:30:48;1.87;;;1.30;;
3959;SDS011;1994;48.640;8.894;2023-05-10T06:33:13;2.40;;;1.20;;
3959;SDS011;1994;48.640;8.894;2023-05-10T06:35:41;1.63;;;1.33;;
3959;SDS011;1994;48.640;8.894;2023-05-10T06:38:06;1.10;;;1.00;;
3959;SDS011;1994;48.640;8.894;2023-05-10T06:40:32;1.67;;;1.40;;
3959;SDS011;1994;48.640;8.894;2023-05-10T06:42:58;1.47;;;1.37;;
3959;SDS011;1994;48.640;8.894;2023-05-10T06:45:24;1.50;;;1.30;;
3959;SDS011;1994;48.640;8.894;2023-05-10T06:47:50;1.20;;;1.10;;
3959;SDS011;1994;48.640;8.894;2023-05-10T06:50:15;3.37;;;1.17;;
3959;SDS011;1994;48.640;8.894;2023-05-10T06:52:41;1.30;;;1.20;;
3959;SDS011;1994;48.640;8.894;2023-05-10T06:55:07;1.70;;;1.60;;
3959;SDS011;1994;48.640;8.894;2023-05-10T06:57:34;0.90;;;0.90;;
3959;SDS011;1994;48.640;8.894;2023-05-10T07:00:00;1.23;;;1.20;;
3959;SDS011;1994;48.640;8.894;2023-05-10T07:02:29;1.50;;;1.40;;
3959;SDS011;1994;48.640;8.894;2023-05-10T07:04:54;1.50;;;1.40;;
3959;SDS011;1994;48.640;8.894;2023-05-10T07:07:20;1.03;;;1.03;;
3959;SDS011;1994;48.640;8.894;2023-05-10T07:09:46;1.40;;;1.30;;
3959;SDS011;1994;48.640;8.894;2023-05-10T07:12:12;2.90;;;1.40;;
3959;SDS011;1994;48.640;8.894;2023-05-10T07:14:38;1.43;;;1.30;;
3959;SDS011;1994;48.640;8.894;2023-05-10T07:17:04;2.30;;;1.00;;
3959;SDS011;1994;48.640;8.894;2023-05-10T07:19:30;0.80;;;0.80;;
3959;SDS011;1994;48.640;8.894;2023-05-10T07:21:57;1.30;;;1.20;;
3959;SDS011;1994;48.640;8.894;2023-05-10T07:24:23;0.90;;;0.90;;
3959;SDS011;1994;48.640;8.894;2023-05-10T07:26:49;1.33;;;0.93;;
3959;SDS011;1994;48.640;8.894;2023-05-10T07:29:15;1.07;;;1.07;;
3959;SDS011;1994;48.640;8.894;2023-05-10T07:31:41;1.50;;;1.10;;
3959;SDS011;1994;48.640;8.894;2023-05-10T07:34:07;1.00;;;1.00;;
3959;SDS011;1994;48.640;8.894;2023-05-10T07:36:34;1.30;;;1.20;;
3959;SDS011;1994;48.640;8.894;2023-05-10T07:39:00;0.90;;;0.90;;
3959;SDS011;1994;48.640;8.894;2023-05-10T07:41:26;1.00;;;1.00;;
3959;SDS011;1994;48.640;8.894;2023-05-10T07:43:52;1.00;;;0.90;;
3959;SDS011;1994;48.640;8.894;2023-05-10T07:46:18;1.20;;;1.20;;
3959;SDS011;1994;48.640;8.894;2023-05-10T07:48:44;7.13;;;1.80;;
3959;SDS011;1994;48.640;8.894;2023-05-10T07:51:10;1.20;;;1.17;;
3959;SDS011;1994;48.640;8.894;2023-05-10T07:53:37;2.60;;;1.30;;
3959;SDS011;1994;48.640;8.894;2023-05-10T07:56:25;1.10;;;1.10;;
3959;SDS011;1994;48.640;8.894;2023-05-10T07:58:57;0.67;;;0.67;;
3959;SDS011;1994;48.640;8.894;2023-05-10T08:01:24;0.70;;;0.70;;
3959;SDS011;1994;48.640;8.894;2023-05-10T08:03:51;0.70;;;0.70;;
3959;SDS011;1994;48.640;8.894;2023-05-10T08:06:18;0.77;;;0.77;;
3959;SDS011;1994;48.640;8.894;2023-05-10T08:08:45;0.80;;;0.80;;
3959;SDS011;1994;48.640;8.894;2023-05-10T08:11:15;1.33;;;0.80;;
3959;SDS011;1994;48.640;8.894;2023-05-10T08:13:45;0.90;;;0.90;;
3959;SDS011;1994;48.640;8.894;2023-05-10T08:16:12;1.00;;;1.00;;
3959;SDS011;1994;48.640;8.894;2023-05-10T08:18:38;0.80;;;0.80;;
3959;SDS011;1994;48.640;8.894;2023-05-10T08:21:05;0.70;;;0.70;;
3959;SDS011;1994;48.640;8.894;2023-05-10T08:23:31;1.00;;;0.80;;
3959;SDS011;1994;48.640;8.894;2023-05-10T08:25:57;0.90;;;0.90;;
3959;SDS011;1994;48.640;8.894;2023-05-10T08:28:24;0.80;;;0.80;;
3959;SDS011;1994;48.640;8.894;2023-05-10T08:30:52;0.80;;;0.80;;
3959;SDS011;1994;48.640;8.894;2023-05-10T08:33:18;1.33;;;0.73;;
3959;SDS011;1994;48.640;8.894;2023-05-10T08:35:44;0.67;;;0.67;;
3959;SDS011;1994;48.640;8.894;2023-05-10T08:38:10;0.80;;;0.80;;
3959;SDS011;1994;48.640;8.894;2023-05-10T08:40:37;0.70;;;0.70;;
3959;SDS011;1994;48.640;8.894;2023-05-10T08:43:07;0.80;;;0.80;;
3959;SDS011;1994;48.640;8.894;2023-05-10T08:45:38;0.70;;;0.70;;
3959;SDS011;1994;48.640;8.894;2023-05-10T08:48:07;0.70;;;0.70;;
3959;SDS011;1994;48.640;8.894;2023-05-10T08:50:38;0.70;;;0.70;;
3959;SDS011;1994;48.640;8.894;2023-05-10T08:53:09;0.70;;;0.70;;
3959;SDS011;1994;48.640;8.894;2023-05-10T08:55:37;1.00;;;1.00;;
3959;SDS011;1994;48.640;8.894;2023-05-10T08:58:05;0.70;;;0.70;;
3959;SDS011;1994;48.640;8.894;2023-05-10T09:00:31;0.70;;;0.70;;
3959;SDS011;1994;48.640;8.894;2023-05-10T09:02:58;0.80;;;0.80;;
3959;SDS011;1994;48.640;8.894;2023-05-10T09:05:26;1.33;;;0.90;;
3959;SDS011;1994;48.640;8.894;2023-05-10T09:07:52;0.70;;;0.70;;
3959;SDS011;1994;48.640;8.894;2023-05-10T09:10:18;0.77;;;0.77;;
3959;SDS011;1994;48.640;8.894;2023-05-10T09:12:45;0.70;;;0.70;;
3959;SDS011;1994;48.640;8.894;2023-05-10T09:15:12;0.87;;;0.70;;
3959;SDS011;1994;48.640;8.894;2023-05-10T09:17:40;1.13;;;0.70;;
3959;SDS011;1994;48.640;8.894;2023-05-10T09:20:09;0.70;;;0.70;;
3959;SDS011;1994;48.640;8.894;2023-05-10T09:22:35;0.60;;;0.60;;
3959;SDS011;1994;48.640;8.894;2023-05-10T09:27:39;1.33;;;0.80;;
3959;SDS011;1994;48.640;8.894;2023-05-10T09:30:14;1.83;;;1.13;;
3959;SDS011;1994;48.640;8.894;2023-05-10T09:32:43;0.80;;;0.80;;
3959;SDS011;1994;48.640;8.894;2023-05-10T09:35:16;0.70;;;0.70;;
3959;SDS011;1994;48.640;8.894;2023-05-10T09:37:48;0.90;;;0.90;;
3959;SDS011;1994;48.640;8.894;2023-05-10T09:40:19;0.70;;;0.70;;
3959;SDS011;1994;48.640;8.894;2023-05-10T09:42:51;0.60;;;0.60;;
3959;SDS011;1994;48.640;8.894;2023-05-10T09:45:23;1.03;;;0.93;;
3959;SDS011;1994;48.640;8.894;2023-05-10T09:47:52;0.60;;;0.60;;
3959;SDS011;1994;48.640;8.894;2023-05-10T09:50:18;0.80;;;0.80;;
3959;SDS011;1994;48.640;8.894;2023-05-10T09:52:56;0.77;;;0.77;;
3959;SDS011;1994;48.640;8.894;2023-05-10T09:55:41;0.80;;;0.80;;
3959;SDS011;1994;48.640;8.894;2023-05-10T09:58:14;0.80;;;0.80;;
3959;SDS011;1994;48.640;8.894;2023-05-10T10:00:41;0.60;;;0.60;;
3959;SDS011;1994;48.640;8.894;2023-05-10T10:03:15;0.70;;;0.70;;
3959;SDS011;1994;48.640;8.894;2023-05-10T10:05:46;0.80;;;0.80;;
3959;SDS011;1994;48.640;8.894;2023-05-10T10:08:13;0.70;;;0.70;;
3959;SDS011;1994;48.640;8.894;2023-05-10T10:10:40;1.10;;;0.80;;
3959;SDS011;1994;48.640;8.894;2023-05-10T10:13:07;2.90;;;1.03;;
3959;SDS011;1994;48.640;8.894;2023-05-10T10:15:33;0.80;;;0.80;;
3959;SDS011;1994;48.640;8.894;2023-05-10T10:18:00;0.77;;;0.77;;
3959;SDS011;1994;48.640;8.894;2023-05-10T10:20:28;0.80;;;0.80;;
3959;SDS011;1994;48.640;8.894;2023-05-10T10:22:54;1.50;;;1.00;;
3959;SDS011;1994;48.640;8.894;2023-05-10T10:25:20;0.90;;;0.90;;
3959;SDS011;1994;48.640;8.894;2023-05-10T10:35:59;1.83;;;1.10;;
3959;SDS011;1994;48.640;8.894;2023-05-10T10:39:10;4.47;;;0.80;;
3959;SDS011;1994;48.640;8.894;2023-05-10T10:49:48;2.30;;;0.70;;
3959;SDS011;1994;48.640;8.894;2023-05-10T10:52:41;0.60;;;0.60;;
3959;SDS011;1994;48.640;8.894;2023-05-10T10:55:18;0.60;;;0.60;;
3959;SDS011;1994;48.640;8.894;2023-05-10T10:57:50;0.70;;;0.70;;
3959;SDS011;1994;48.640;8.894;2023-05-10T11:00:28;3.77;;;0.80;;
3959;SDS011;1994;48.640;8.894;2023-05-10T11:03:06;0.90;;;0.90;;
3959;SDS011;1994;48.640;8.894;2023-05-10T11:05:41;0.93;;;0.93;;
3959;SDS011;1994;48.640;8.894;2023-05-10T11:08:32;0.90;;;0.90;;
3959;SDS011;1994;48.640;8.894;2023-05-10T11:13:43;0.70;;;0.70;;
3959;SDS011;1994;48.640;8.894;2023-05-10T11:16:23;0.80;;;0.77;;
3959;SDS011;1994;48.640;8.894;2023-05-10T11:21:44;0.77;;;0.77;;
3959;SDS011;1994;48.640;8.894;2023-05-10T11:24:29;0.70;;;0.70;;
3959;SDS011;1994;48.640;8.894;2023-05-10T11:26:55;0.70;;;0.70;;
3959;SDS011;1994;48.640;8.894;2023-05-10T11:29:22;0.60;;;0.60;;
3959;SDS011;1994;48.640;8.894;2023-05-10T11:31:48;0.70;;;0.70;;
3959;SDS011;1994;48.640;8.894;2023-05-10T11:34:23;0.70;;;0.70;;
3959;SDS011;1994;48.640;8.894;2023-05-10T11:36:51;0.70;;;0.70;;
3959;SDS011;1994;48.640;8.894;2023-05-10T11:39:21;2.10;;;1.00;;
3959;SDS011;1994;48.640;8.894;2023-05-10T11:41:52;0.90;;;0.90;;
3959;SDS011;1994;48.640;8.894;2023-05-10T11:44:18;3.13;;;0.80;;
3959;SDS011;1994;48.640;8.894;2023-05-10T11:46:44;1.03;;;1.00;;
3959;SDS011;1994;48.640;8.894;2023-05-10T11:49:10;1.10;;;1.00;;
3959;SDS011;1994;48.640;8.894;2023-05-10T11:51:36;1.00;;;1.00;;
3959;SDS011;1994;48.640;8.894;2023-05-10T11:54:07;1.00;;;0.90;;
3959;SDS011;1994;48.640;8.894;2023-05-10T11:56:37;2.77;;;0.80;;
3959;SDS011;1994;48.640;8.894;2023-05-10T11:59:04;0.80;;;0.80;;
3959;SDS011;1994;48.640;8.894;2023-05-10T12:01:30;0.70;;;0.70;;
3959;SDS011;1994;48.640;8.894;2023-05-10T12:03:57;1.60;;;0.93;;
3959;SDS011;1994;48.640;8.894;2023-05-10T12:06:28;0.90;;;0.90;;
3959;SDS011;1994;48.640;8.894;2023-05-10T12:09:05;1.10;;;1.10;;
3959;SDS011;1994;48.640;8.894;2023-05-10T12:11:35;1.67;;;1.30;;
3959;SDS011;1994;48.640;8.894;2023-05-10T12:14:04;1.47;;;1.13;;
3959;SDS011;1994;48.640;8.894;2023-05-10T12:16:30;1.00;;;0.93;;
3959;SDS011;1994;48.640;8.894;2023-05-10T12:18:57;1.00;;;1.00;;
3959;SDS011;1994;48.640;8.894;2023-05-10T12:21:26;1.17;;;1.03;;
3959;SDS011;1994;48.640;8.894;2023-05-10T12:23:58;1.07;;;1.03;;
3959;SDS011;1994;48.640;8.894;2023-05-10T12:26:27;0.80;;;0.80;;
3959;SDS011;1994;48.640;8.894;2023-05-10T12:28:54;1.10;;;1.00;;
3959;SDS011;1994;48.640;8.894;2023-05-10T12:31:48;1.30;;;1.20;;
3959;SDS011;1994;48.640;8.894;2023-05-10T12:34:23;0.90;;;0.90;;
3959;SDS011;1994;48.640;8.894;2023-05-10T12:36:58;0.80;;;0.80;;
3959;SDS011;1994;48.640;8.894;2023-05-10T12:39:24;1.10;;;1.00;;
3959;SDS011;1994;48.640;8.894;2023-05-10T12:41:51;1.00;;;1.00;;
3959;SDS011;1994;48.640;8.894;2023-05-10T12:44:17;1.00;;;0.90;;
3959;SDS011;1994;48.640;8.894;2023-05-10T12:46:44;1.00;;;1.00;;
3959;SDS011;1994;48.640;8.894;2023-05-10T12:49:09;0.90;;;0.90;;
3959;SDS011;1994;48.640;8.894;2023-05-10T12:51:35;0.80;;;0.80;;
3959;SDS011;1994;48.640;8.894;2023-05-10T12:54:02;1.37;;;1.20;;
3959;SDS011;1994;48.640;8.894;2023-05-10T12:56:28;0.90;;;0.90;;
3959;SDS011;1994;48.640;8.894;2023-05-10T12:58:54;4.83;;;1.10;;
3959;SDS011;1994;48.640;8.894;2023-05-10T13:01:20;1.00;;;1.00;;
3959;SDS011;1994;48.640;8.894;2023-05-10T13:03:45;0.90;;;0.90;;
3959;SDS011;1994;48.640;8.894;2023-05-10T13:06:12;0.87;;;0.87;;
3959;SDS011;1994;48.640;8.894;2023-05-10T13:08:38;0.93;;;0.93;;
3959;SDS011;1994;48.640;8.894;2023-05-10T13:11:05;1.33;;;1.30;;
3959;SDS011;1994;48.640;8.894;2023-05-10T13:13:31;2.03;;;1.10;;
3959;SDS011;1994;48.640;8.894;2023-05-10T13:15:57;1.20;;;1.10;;
3959;SDS011;1994;48.640;8.894;2023-05-10T13:18:22;1.23;;;1.13;;
3959;SDS011;1994;48.640;8.894;2023-05-10T13:20:49;1.30;;;1.30;;
3959;SDS011;1994;48.640;8.894;2023-05-10T13:23:15;1.20;;;1.10;;
3959;SDS011;1994;48.640;8.894;2023-05-10T13:25:40;3.07;;;1.50;;
3959;SDS011;1994;48.640;8.894;2023-05-10T13:28:06;1.27;;;1.00;;
3959;SDS011;1994;48.640;8.894;2023-05-10T13:30:32;1.20;;;1.13;;
3959;SDS011;1994;48.640;8.894;2023-05-10T13:32:58;1.10;;;1.10;;
3959;SDS011;1994;48.640;8.894;2023-05-10T13:35:24;1.87;;;1.10;;
3959;SDS011;1994;48.640;8.894;2023-05-10T13:37:49;1.40;;;1.30;;
3959;SDS011;1994;48.640;8.894;2023-05-10T13:40:15;1.13;;;1.00;;
3959;SDS011;1994;48.640;8.894;2023-05-10T13:42:41;0.80;;;0.80;;
3959;SDS011;1994;48.640;8.894;2023-05-10T13:45:07;1.10;;;1.10;;
3959;SDS011;1994;48.640;8.894;2023-05-10T13:47:33;1.13;;;1.03;;
3959;SDS011;1994;48.640;8.894;2023-05-10T13:49:59;1.00;;;1.00;;
3959;SDS011;1994;48.640;8.894;2023-05-10T13:52:26;1.00;;;0.97;;
3959;SDS011;1994;48.640;8.894;2023-05-10T13:54:51;0.90;;;0.90;;
3959;SDS011;1994;48.640;8.894;2023-05-10T13:57:19;1.23;;;1.10;;
3959;SDS011;1994;48.640;8.894;2023-05-10T13:59:46;3.10;;;0.90;;
3959;SDS011;1994;48.640;8.894;2023-05-10T14:02:12;0.90;;;0.90;;
3959;SDS011;1994;48.640;8.894;2023-05-10T14:04:38;1.77;;;1.40;;
3959;SDS011;1994;48.640;8.894;2023-05-10T14:07:04;1.10;;;1.00;;
3959;SDS011;1994;48.640;8.894;2023-05-10T14:09:30;3.13;;;1.10;;
3959;SDS011;1994;48.640;8.894;2023-05-10T14:11:55;0.90;;;0.90;;
3959;SDS011;1994;48.640;8.894;2023-05-10T14:14:22;1.00;;;0.90;;
3959;SDS011;1994;48.640;8.894;2023-05-10T14:16:48;0.80;;;0.80;;
3959;SDS011;1994;48.640;8.894;2023-05-10T14:19:13;1.70;;;1.60;;
3959;SDS011;1994;48.640;8.894;2023-05-10T14:21:39;0.80;;;0.80;;
3959;SDS011;1994;48.640;8.894;2023-05-10T14:24:05;2.20;;;1.40;;
3959;SDS011;1994;48.640;8.894;2023-05-10T14:26:32;0.80;;;0.80;;
3959;SDS011;1994;48.640;8.894;2023-05-10T14:28:59;1.07;;;0.77;;
3959;SDS011;1994;48.640;8.894;2023-05-10T14:31:25;1.00;;;1.00;;
3959;SDS011;1994;48.640;8.894;2023-05-10T14:33:51;0.90;;;0.90;;
3959;SDS011;1994;48.640;8.894;2023-05-10T14:36:17;0.90;;;0.90;;
3959;SDS011;1994;48.640;8.894;2023-05-10T14:38:43;0.87;;;0.83;;
3959;SDS011;1994;48.640;8.894;2023-05-10T14:41:09;0.80;;;0.80;;
3959;SDS011;1994;48.640;8.894;2023-05-10T14:43:39;1.07;;;0.83;;
3959;SDS011;1994;48.640;8.894;2023-05-10T14:46:06;0.70;;;0.70;;
3959;SDS011;1994;48.640;8.894;2023-05-10T14:48:31;0.80;;;0.80;;
3959;SDS011;1994;48.640;8.894;2023-05-10T14:50:57;1.30;;;1.20;;
3959;SDS011;1994;48.640;8.894;2023-05-10T14:53:23;0.80;;;0.80;;
3959;SDS011;1994;48.640;8.894;2023-05-10T14:55:49;2.43;;;0.90;;
3959;SDS011;1994;48.640;8.894;2023-05-10T14:58:14;2.00;;;0.93;;
3959;SDS011;1994;48.640;8.894;2023-05-10T15:00:41;1.00;;;1.00;;
3959;SDS011;1994;48.640;8.894;2023-05-10T15:03:07;0.87;;;0.87;;
3959;SDS011;1994;48.640;8.894;2023-05-10T15:05:32;1.00;;;1.00;;
3959;SDS011;1994;48.640;8.894;2023-05-10T15:07:58;1.37;;;0.97;;
3959;SDS011;1994;48.640;8.894;2023-05-10T15:10:24;0.77;;;0.77;;
3959;SDS011;1994;48.640;8.894;2023-05-10T15:12:50;2.90;;;1.10;;
3959;SDS011;1994;48.640;8.894;2023-05-10T15:15:16;0.97;;;0.97;;
3959;SDS011;1994;48.640;8.894;2023-05-10T15:17:41;1.90;;;1.20;;
3959;SDS011;1994;48.640;8.894;2023-05-10T15:20:07;1.30;;;0.90;;
3959;SDS011;1994;48.640;8.894;2023-05-10T15:22:33;0.87;;;0.87;;
3959;SDS011;1994;48.640;8.894;2023-05-10T15:24:59;1.37;;;1.37;;
3959;SDS011;1994;48.640;8.894;2023-05-10T15:27:25;0.80;;;0.80;;
3959;SDS011;1994;48.640;8.894;2023-05-10T15:29:51;0.60;;;0.60;;
3959;SDS011;1994;48.640;8.894;2023-05-10T15:32:17;1.80;;;0.80;;
3959;SDS011;1994;48.640;8.894;2023-05-10T15:34:43;0.90;;;0.90;;
3959;SDS011;1994;48.640;8.894;2023-05-10T15:37:09;0.80;;;0.80;;
3959;SDS011;1994;48.640;8.894;2023-05-10T15:39:35;1.13;;;0.90;;
3959;SDS011;1994;48.640;8.894;2023-05-10T15:42:01;0.80;;;0.80;;
3959;SDS011;1994;48.640;8.894;2023-05-10T15:44:28;0.90;;;0.90;;
3959;SDS011;1994;48.640;8.894;2023-05-10T15:46:54;0.70;;;0.70;;
3959;SDS011;1994;48.640;8.894;2023-05-10T15:49:19;0.70;;;0.70;;
3959;SDS011;1994;48.640;8.894;2023-05-10T15:51:45;1.20;;;1.10;;
3959;SDS011;1994;48.640;8.894;2023-05-10T15:54:11;2.27;;;1.20;;
3959;SDS011;1994;48.640;8.894;2023-05-10T15:56:37;0.70;;;0.70;;
3959;SDS011;1994;48.640;8.894;2023-05-10T15:59:03;2.50;;;2.00;;
3959;SDS011;1994;48.640;8.894;2023-05-10T16:01:34;1.27;;;1.00;;